Sebewaing, Michigan
Current Conditions -  °F | °C
As of 1:15 PM on Sunday 25 Jan 2015 (Local Time) from KCFS Reporting Station
Scattered Clouds Scattered Clouds  
Wind Chill: 17°   Ceiling: Unl
Heat Index: 24°   Visibility: 10mi
Dew Point: 11°   Wind: 6mph
Humidity: 58%   Direction: 60°ENE
Pressure: 29.95"   Gusts: NA
Location:  43.73°N, 83.45°W
Report Text: KCFS 251815Z AUTO 06005KT 10SM SCT029 M05/M12 A2995 RMK AO2 T10461118
Loading
Personal Weather Stations






























Interactive Weather Map New forecast layout! Learn more

10-Day Weather Forecast

Advertisements
Track Severe Weather on mobile